Time;durP1;ratioP1;P1;durP2;ratioP2;P2;SDS_P1;SDS_P2;PMS_P1;PMS_P2;Temp;Humidity;BMP_temperature;BMP_pressure;BME280_temperature;BME280_humidity;BME280_pressure;Samples;Min_cycle;Max_cycle;Signal;HPM_P1;HPM_P2
2021/11/16 00:01:00;;;;;;;9.00;4.82;;;3.00;67.00;;;;;;5055530;28;20044;-38
2021/11/16 00:03:26;;;;;;;6.93;4.55;;;3.00;67.00;;;;;;5055894;28;20111;-37
2021/11/16 00:05:52;;;;;;;9.82;5.05;;;3.00;67.10;;;;;;5058726;28;20076;-39
2021/11/16 00:08:18;;;;;;;11.50;5.43;;;3.00;67.20;;;;;;5058703;28;20037;-39
2021/11/16 00:10:43;;;;;;;7.55;4.47;;;3.00;67.20;;;;;;5058922;28;20052;-37
2021/11/16 00:13:12;;;;;;;8.57;4.90;;;3.00;67.30;;;;;;5058430;28;20040;-37
2021/11/16 00:15:40;;;;;;;7.03;4.72;;;3.00;67.30;;;;;;5058628;28;20083;-39
2021/11/16 00:18:07;;;;;;;9.73;5.25;;;3.00;67.30;;;;;;5058358;28;20057;-39
2021/11/16 00:20:37;;;;;;;6.75;4.35;;;3.00;67.40;;;;;;5058742;28;20033;-38
2021/11/16 00:23:02;;;;;;;9.20;5.00;;;2.90;67.40;;;;;;5058096;28;20024;-38
2021/11/16 00:25:35;;;;;;;8.18;4.43;;;2.90;67.50;;;;;;5058708;28;20036;-37
2021/11/16 00:28:01;;;;;;;9.07;5.55;;;2.90;67.50;;;;;;5056741;28;20417;-39
2021/11/16 00:30:27;;;;;;;8.35;5.25;;;3.00;67.70;;;;;;5058623;28;20044;-40
2021/11/16 00:32:53;;;;;;;8.60;5.10;;;2.90;67.70;;;;;;5057875;28;20556;-37
2021/11/16 00:35:19;;;;;;;8.27;5.50;;;2.90;67.80;;;;;;5058372;28;20258;-37
2021/11/16 00:37:45;;;;;;;10.15;5.30;;;2.90;67.90;;;;;;5057933;28;20021;-40
2021/11/16 00:40:19;;;;;;;7.70;4.85;;;2.90;68.00;;;;;;5058688;28;20068;-36
2021/11/16 00:42:47;;;;;;;7.90;4.90;;;3.00;68.10;;;;;;5058084;28;20045;-37
2021/11/16 00:45:13;;;;;;;7.57;4.45;;;3.00;68.10;;;;;;5058440;28;20040;-39
2021/11/16 00:47:40;;;;;;;8.48;5.22;;;3.00;68.20;;;;;;5057773;28;20104;-40
2021/11/16 00:50:06;;;;;;;9.15;4.70;;;3.00;68.20;;;;;;5058300;28;20298;-39
2021/11/16 00:52:32;;;;;;;7.88;5.28;;;3.10;68.20;;;;;;5056576;28;20070;-39
2021/11/16 00:54:58;;;;;;;9.68;5.30;;;3.10;68.30;;;;;;5058100;28;20043;-38
2021/11/16 00:57:24;;;;;;;7.85;4.72;;;3.10;68.30;;;;;;5057833;28;20409;-39
2021/11/16 00:59:50;;;;;;;7.43;4.70;;;3.20;68.30;;;;;;5058213;28;20335;-40
2021/11/16 01:02:16;;;;;;;8.18;4.60;;;3.20;68.30;;;;;;5057428;28;20032;-39
2021/11/16 01:04:49;;;;;;;11.02;5.63;;;3.20;68.20;;;;;;5058056;28;20029;-38
2021/11/16 01:07:16;;;;;;;14.43;6.28;;;3.30;68.30;;;;;;5057697;28;20035;-36
2021/11/16 01:09:41;;;;;;;9.30;5.78;;;3.40;68.30;;;;;;5057852;28;20021;-37
2021/11/16 01:12:08;;;;;;;10.75;6.28;;;3.40;68.30;;;;;;5057404;28;20036;-36
2021/11/16 01:14:33;;;;;;;8.63;4.97;;;3.40;68.30;;;;;;5057402;28;20029;-38
2021/11/16 01:17:00;;;;;;;15.40;5.75;;;3.40;68.20;;;;;;5056948;28;20321;-39
2021/11/16 01:19:26;;;;;;;9.05;5.30;;;3.40;68.70;;;;;;5057816;28;20040;-36
2021/11/16 01:21:52;;;;;;;9.23;5.60;;;3.40;68.10;;;;;;5057005;28;20029;-39
2021/11/16 01:24:18;;;;;;;9.85;5.82;;;3.40;68.10;;;;;;5057644;28;20314;-38
2021/11/16 01:26:46;;;;;;;9.45;5.40;;;3.40;68.10;;;;;;5057183;28;20333;-39
2021/11/16 01:29:12;;;;;;;9.52;5.60;;;3.40;68.10;;;;;;5057615;28;20082;-37
2021/11/16 01:31:38;;;;;;;9.98;5.95;;;3.40;68.10;;;;;;5057154;28;20135;-37
2021/11/16 01:34:06;;;;;;;7.80;4.93;;;3.40;68.00;;;;;;5057615;28;20033;-36
2021/11/16 01:36:32;;;;;;;10.30;5.60;;;3.40;68.10;;;;;;5055692;28;20029;-39
2021/11/16 01:38:59;;;;;;;10.43;6.38;;;3.40;68.10;;;;;;5056850;28;20325;-37
2021/11/16 01:41:27;;;;;;;9.75;5.93;;;3.30;68.10;;;;;;5057051;28;20025;-36
2021/11/16 01:43:53;;;;;;;10.77;6.38;;;3.30;68.30;;;;;;5057026;28;20371;-36
2021/11/16 01:46:20;;;;;;;8.95;5.85;;;3.20;68.30;;;;;;5056768;28;20024;-39
2021/11/16 01:48:52;;;;;;;12.80;6.75;;;3.20;68.40;;;;;;5056921;28;20040;-39
2021/11/16 01:51:21;;;;;;;12.45;6.40;;;3.20;68.40;;;;;;5056899;28;20309;-37
2021/11/16 01:53:50;;;;;;;9.88;5.65;;;3.20;68.40;;;;;;5056771;28;20092;-38
2021/11/16 01:56:16;;;;;;;19.15;8.90;;;3.10;68.40;;;;;;5056478;28;20021;-38
2021/11/16 01:58:42;;;;;;;16.63;8.68;;;3.10;68.30;;;;;;5055613;28;20029;-38
2021/11/16 02:01:08;;;;;;;10.90;6.30;;;3.10;68.30;;;;;;5056370;28;20029;-36
2021/11/16 02:03:34;;;;;;;9.93;6.00;;;3.00;68.10;;;;;;5056631;28;20033;-36
2021/11/16 02:06:22;;;;;;;13.77;7.35;;;3.00;68.10;;;;;;5056502;28;20032;-39
2021/11/16 02:08:49;;;;;;;16.80;9.30;;;3.00;68.10;;;;;;5056676;28;20370;-39
2021/11/16 02:11:15;;;;;;;23.10;10.93;;;2.90;68.20;;;;;;5056293;28;20044;-38
2021/11/16 02:13:41;;;;;;;18.20;9.27;;;2.80;68.10;;;;;;5056332;28;20037;-38
2021/11/16 02:16:07;;;;;;;13.07;8.10;;;2.80;68.10;;;;;;5056388;28;20075;-36
2021/11/16 02:18:32;;;;;;;17.00;9.15;;;2.70;68.00;;;;;;5056329;28;20403;-38
2021/11/16 02:20:58;;;;;;;18.48;9.63;;;2.70;67.90;;;;;;5056458;28;20028;-39
2021/11/16 02:23:24;;;;;;;15.57;8.40;;;2.60;67.90;;;;;;5055912;28;20429;-35
2021/11/16 02:25:50;;;;;;;18.70;8.82;;;2.60;67.90;;;;;;5055685;28;20352;-39
2021/11/16 02:28:18;;;;;;;17.05;8.85;;;2.60;67.80;;;;;;5055731;28;20033;-39
2021/11/16 02:30:46;;;;;;;21.67;10.88;;;2.50;67.80;;;;;;5055939;28;20090;-36
2021/11/16 02:33:13;;;;;;;23.02;10.57;;;2.40;67.70;;;;;;5054541;28;20037;-39
2021/11/16 02:35:39;;;;;;;21.15;9.73;;;2.40;68.30;;;;;;5054815;28;20028;-36
2021/11/16 02:38:05;;;;;;;19.50;9.75;;;2.40;67.80;;;;;;5055718;28;20091;-38
2021/11/16 02:40:31;;;;;;;19.65;10.10;;;2.30;67.80;;;;;;5055964;28;20029;-39
2021/11/16 02:42:57;;;;;;;16.95;8.57;;;2.30;67.80;;;;;;5055520;28;20041;-36
2021/11/16 02:45:23;;;;;;;20.10;11.00;;;2.30;67.80;;;;;;5055846;28;20068;-40
2021/11/16 02:47:49;;;;;;;30.13;13.70;;;2.20;67.80;;;;;;5055485;28;20112;-39
2021/11/16 02:50:17;;;;;;;20.70;11.10;;;2.20;68.40;;;;;;5056305;28;20324;-36
2021/11/16 02:52:43;;;;;;;21.65;11.13;;;2.10;67.90;;;;;;5055830;28;20409;-37
2021/11/16 02:55:09;;;;;;;35.55;13.40;;;2.10;68.00;;;;;;5054562;28;20043;-39
2021/11/16 02:57:36;;;;;;;50.08;17.55;;;2.10;68.10;;;;;;5055438;28;20397;-38
2021/11/16 03:00:14;;;;;;;22.05;10.75;;;2.10;68.00;;;;;;5056094;28;20025;-39
2021/11/16 03:02:42;;;;;;;22.83;10.68;;;2.00;68.00;;;;;;5055425;28;20032;-36
2021/11/16 03:05:08;;;;;;;40.08;13.60;;;2.00;67.80;;;;;;5056123;28;20033;-38
2021/11/16 03:07:44;;;;;;;47.72;15.63;;;2.00;67.80;;;;;;5055476;28;20025;-40
2021/11/16 03:10:10;;;;;;;70.82;18.10;;;2.00;67.90;;;;;;5056148;28;20055;-39
2021/11/16 03:12:36;;;;;;;60.78;18.27;;;1.90;67.90;;;;;;5055349;28;20025;-40
2021/11/16 03:15:03;;;;;;;68.28;18.70;;;1.90;67.80;;;;;;5055741;28;20029;-38
2021/11/16 03:17:29;;;;;;;68.13;19.63;;;1.80;67.80;;;;;;5055475;28;20139;-39
2021/11/16 03:19:55;;;;;;;36.30;12.88;;;1.80;67.90;;;;;;5055737;28;20029;-37
2021/11/16 03:22:25;;;;;;;22.13;10.10;;;1.80;67.90;;;;;;5055130;28;20317;-37
2021/11/16 03:24:51;;;;;;;31.52;12.07;;;1.80;68.00;;;;;;5055719;28;20325;-40
2021/11/16 03:27:19;;;;;;;29.15;11.43;;;1.70;67.90;;;;;;5055224;28;20032;-37
2021/11/16 03:29:47;;;;;;;24.13;10.10;;;1.70;68.00;;;;;;5055648;28;20104;-37
2021/11/16 03:32:17;;;;;;;30.13;10.93;;;1.70;68.00;;;;;;5055109;28;20033;-40
2021/11/16 03:34:45;;;;;;;26.60;10.38;;;1.70;67.90;;;;;;5055694;28;20429;-40
2021/11/16 03:37:12;;;;;;;33.72;11.63;;;1.70;67.80;;;;;;5055650;28;20029;-40
2021/11/16 03:39:38;;;;;;;52.08;16.02;;;1.70;67.80;;;;;;5059638;28;20336;-37
2021/11/16 03:42:05;;;;;;;23.17;9.02;;;1.60;67.70;;;;;;5058836;28;20038;-37
2021/11/16 03:44:32;;;;;;;37.75;15.07;;;1.60;67.60;;;;;;5058229;28;20071;-39
2021/11/16 03:46:58;;;;;;;31.88;13.18;;;1.60;67.50;;;;;;5058925;28;20055;-40
2021/11/16 03:49:24;;;;;;;28.33;12.43;;;1.60;68.10;;;;;;5059483;28;20102;-38
2021/11/16 03:51:50;;;;;;;35.22;13.77;;;1.60;67.40;;;;;;5058953;28;20159;-40
2021/11/16 03:54:16;;;;;;;18.98;7.65;;;1.50;67.20;;;;;;5059082;28;20032;-37
2021/11/16 03:56:42;;;;;;;14.23;7.80;;;1.50;67.10;;;;;;5058448;28;20028;-40
2021/11/16 03:59:09;;;;;;;14.00;6.97;;;1.50;67.10;;;;;;5058991;28;20144;-38
2021/11/16 04:01:34;;;;;;;13.77;6.68;;;1.50;67.00;;;;;;5058733;28;20104;-37
2021/11/16 04:04:02;;;;;;;20.40;8.02;;;1.50;67.00;;;;;;5059022;28;20104;-37
2021/11/16 04:06:28;;;;;;;16.33;7.57;;;1.40;66.80;;;;;;5058760;28;20306;-37
2021/11/16 04:08:54;;;;;;;11.38;6.18;;;1.40;66.70;;;;;;5059106;28;20040;-39
2021/11/16 04:11:20;;;;;;;10.60;5.85;;;1.40;66.70;;;;;;5058642;28;20025;-40
2021/11/16 04:13:46;;;;;;;10.00;5.82;;;1.40;66.70;;;;;;5058590;28;20325;-37
2021/11/16 04:16:12;;;;;;;15.32;8.63;;;1.40;66.70;;;;;;5058454;28;20039;-37
2021/11/16 04:18:38;;;;;;;16.70;7.13;;;1.40;66.60;;;;;;5058610;28;20067;-39
2021/11/16 04:21:03;;;;;;;18.80;7.88;;;1.40;66.60;;;;;;5058425;28;20053;-37
2021/11/16 04:23:30;;;;;;;9.98;5.93;;;1.40;66.40;;;;;;5058309;28;20025;-40
2021/11/16 04:25:57;;;;;;;14.75;8.10;;;1.40;66.30;;;;;;5058607;28;20111;-38
2021/11/16 04:28:23;;;;;;;16.88;7.28;;;1.40;66.20;;;;;;5058336;28;20028;-40
2021/11/16 04:30:51;;;;;;;12.77;6.82;;;1.40;66.10;;;;;;5058209;28;20071;-37
2021/11/16 04:33:18;;;;;;;15.25;6.85;;;1.40;66.10;;;;;;5058022;28;20039;-39
2021/11/16 04:35:44;;;;;;;16.02;8.23;;;1.40;66.10;;;;;;5058107;28;20384;-40
2021/11/16 04:38:13;;;;;;;20.30;9.70;;;1.40;66.00;;;;;;5058134;28;20040;-37
2021/11/16 04:40:43;;;;;;;21.58;10.38;;;1.40;65.90;;;;;;5057041;28;20024;-37
2021/11/16 04:43:18;;;;;;;17.42;9.40;;;1.40;66.00;;;;;;5057915;28;20139;-37
2021/11/16 04:45:48;;;;;;;22.17;9.45;;;1.40;66.00;;;;;;5058129;28;20045;-37
2021/11/16 04:48:30;;;;;;;23.88;10.75;;;1.30;65.90;;;;;;5057059;28;20124;-39
2021/11/16 04:54:15;;;;;;;21.95;11.02;;;1.30;66.00;;;;;;5057879;28;20492;-37
2021/11/16 05:04:32;;;;;;;34.13;13.57;;;1.30;65.90;;;;;;5058357;28;20032;-37
2021/11/16 05:06:58;;;;;;;26.10;10.27;;;1.30;65.90;;;;;;5057249;28;20033;-37
2021/11/16 05:09:24;;;;;;;19.67;8.32;;;1.30;65.90;;;;;;5057729;28;20092;-37
2021/11/16 05:11:49;;;;;;;24.95;11.82;;;1.30;65.80;;;;;;5057013;28;20033;-40
2021/11/16 05:14:15;;;;;;;30.30;9.88;;;1.30;65.90;;;;;;5057264;28;20036;-40
2021/11/16 05:16:41;;;;;;;24.40;8.88;;;1.30;65.80;;;;;;5056960;28;20409;-37
2021/11/16 05:19:07;;;;;;;32.00;10.40;;;1.30;65.90;;;;;;5057579;28;20078;-41
2021/11/16 05:21:32;;;;;;;18.20;9.95;;;1.30;65.90;;;;;;5056885;28;20111;-37
2021/11/16 05:24:00;;;;;;;22.95;9.90;;;1.30;65.80;;;;;;5057275;28;20029;-37
2021/11/16 05:26:28;;;;;;;19.08;10.38;;;1.20;65.70;;;;;;5057012;28;20036;-39
2021/11/16 05:28:54;;;;;;;22.60;12.35;;;1.20;65.70;;;;;;5057060;28;20032;-40
2021/11/16 05:31:21;;;;;;;29.27;13.10;;;1.20;65.70;;;;;;5057035;28;20302;-37
2021/11/16 05:33:48;;;;;;;31.20;12.52;;;1.20;65.70;;;;;;5056857;28;20036;-37
2021/11/16 05:36:18;;;;;;;28.17;14.13;;;1.20;65.60;;;;;;5056849;28;20364;-37
2021/11/16 05:38:48;;;;;;;36.92;17.13;;;1.20;65.60;;;;;;5056617;28;20115;-37
2021/11/16 05:41:16;;;;;;;61.15;21.13;;;1.20;65.70;;;;;;5056788;28;20044;-40
2021/11/16 05:43:44;;;;;;;56.08;15.30;;;1.20;65.80;;;;;;5056663;28;20064;-37
2021/11/16 05:46:10;;;;;;;44.33;12.80;;;1.20;65.90;;;;;;5056852;28;20082;-39
2021/11/16 05:48:38;;;;;;;42.22;13.95;;;1.20;66.00;;;;;;5056676;28;20033;-39
2021/11/16 05:51:05;;;;;;;52.47;20.20;;;1.20;66.00;;;;;;5056666;28;20036;-37
2021/11/16 05:53:32;;;;;;;53.13;17.88;;;1.20;66.00;;;;;;5056693;28;20044;-38
2021/11/16 05:55:58;;;;;;;31.48;15.75;;;1.20;66.00;;;;;;5056792;28;20374;-40
2021/11/16 05:58:24;;;;;;;27.33;14.05;;;1.30;66.00;;;;;;5056467;28;20124;-40
2021/11/16 06:00:51;;;;;;;47.92;23.35;;;1.30;66.00;;;;;;5055784;28;20025;-37
2021/11/16 06:03:17;;;;;;;43.83;20.35;;;1.30;66.00;;;;;;5055978;28;20488;-37
2021/11/16 06:05:43;;;;;;;42.00;20.30;;;1.30;66.50;;;;;;5056688;28;20409;-37
2021/11/16 06:08:23;;;;;;;51.53;22.75;;;1.30;65.80;;;;;;5056319;28;20128;-37
2021/11/16 06:10:49;;;;;;;42.88;17.88;;;1.40;65.90;;;;;;5056363;28;20090;-39
2021/11/16 06:13:15;;;;;;;33.78;15.40;;;1.40;65.90;;;;;;5056010;28;20063;-39
2021/11/16 06:15:40;;;;;;;44.42;14.27;;;1.40;66.00;;;;;;5056117;28;20017;-40
2021/11/16 06:18:06;;;;;;;35.63;14.20;;;1.40;65.90;;;;;;5055843;28;20349;-36
2021/11/16 06:20:32;;;;;;;38.00;14.95;;;1.50;65.90;;;;;;5056205;28;20024;-39
2021/11/16 06:22:59;;;;;;;61.53;20.85;;;1.50;65.90;;;;;;5055495;28;20020;-40
2021/11/16 06:25:24;;;;;;;43.42;16.45;;;1.50;65.80;;;;;;5055785;28;20048;-39
2021/11/16 06:27:50;;;;;;;66.50;19.42;;;1.60;65.60;;;;;;5055820;28;20025;-38
2021/11/16 06:30:16;;;;;;;54.65;20.95;;;1.60;65.40;;;;;;5056216;28;20029;-39
2021/11/16 06:32:43;;;;;;;73.03;24.98;;;1.70;65.40;;;;;;5055724;28;20167;-37
2021/11/16 06:35:16;;;;;;;61.20;25.05;;;1.70;65.20;;;;;;5056219;28;20425;-38
2021/11/16 06:37:42;;;;;;;49.75;22.33;;;1.70;65.10;;;;;;5055472;28;20108;-39
2021/11/16 06:40:08;;;;;;;54.22;23.08;;;1.80;64.80;;;;;;5056024;28;20416;-37
2021/11/16 06:42:33;;;;;;;50.42;19.83;;;1.70;64.30;;;;;;5055424;28;20041;-37
2021/11/16 06:44:59;;;;;;;44.13;18.85;;;1.80;64.20;;;;;;5055954;28;20302;-37
2021/11/16 06:47:25;;;;;;;46.60;18.77;;;1.80;64.10;;;;;;5055211;28;20037;-37
2021/11/16 06:49:51;;;;;;;61.25;19.17;;;1.80;64.20;;;;;;5055794;28;20040;-38
2021/11/16 06:52:17;;;;;;;38.63;15.35;;;1.80;64.00;;;;;;5055187;28;20025;-37
2021/11/16 06:54:45;;;;;;;23.25;9.50;;;1.90;63.50;;;;;;5055715;28;20040;-36
2021/11/16 06:57:12;;;;;;;20.90;10.13;;;1.90;62.90;;;;;;5052362;28;20028;-36
2021/11/16 06:59:39;;;;;;;15.80;7.95;;;1.90;62.40;;;;;;5054433;28;20029;-38
2021/11/16 07:02:05;;;;;;;19.15;9.40;;;2.00;62.10;;;;;;5055514;28;20033;-39
2021/11/16 07:04:41;;;;;;;17.42;9.35;;;2.00;61.90;;;;;;5055521;28;20060;-36
2021/11/16 07:07:07;;;;;;;18.42;9.93;;;2.00;61.90;;;;;;5054833;28;20419;-39
2021/11/16 07:09:37;;;;;;;18.00;9.85;;;2.10;61.90;;;;;;5055655;28;20306;-36
2021/11/16 07:12:19;;;;;;;23.92;10.75;;;2.10;61.50;;;;;;5055531;28;20311;-37
2021/11/16 07:14:45;;;;;;;16.85;9.60;;;2.10;61.50;;;;;;5059514;28;20037;-38
2021/11/16 07:17:16;;;;;;;19.02;8.27;;;2.20;61.10;;;;;;5058760;28;20119;-40
2021/11/16 07:19:55;;;;;;;;;;;2.20;60.70;;;;;;5060066;28;20113;-36
2021/11/16 07:22:27;;;;;;;23.65;8.57;;;2.20;60.70;;;;;;5058910;28;19909;-37
2021/11/16 07:25:02;;;;;;;21.08;8.07;;;2.30;61.00;;;;;;5059289;28;20036;-36
2021/11/16 07:27:59;;;;;;;18.00;7.38;;;2.30;60.90;;;;;;5059001;28;20405;-36
2021/11/16 07:30:28;;;;;;;18.67;7.80;;;2.40;60.50;;;;;;5057811;28;20086;-40
2021/11/16 07:32:58;;;;;;;17.98;8.75;;;2.50;60.10;;;;;;5059101;28;20037;-36
2021/11/16 07:35:29;;;;;;;22.05;10.13;;;2.50;59.40;;;;;;5058870;28;20111;-40
2021/11/16 07:38:00;;;;;;;26.75;9.18;;;2.50;59.40;;;;;;5059034;28;20028;-38
2021/11/16 07:40:27;;;;;;;22.30;9.23;;;2.60;59.60;;;;;;5059123;28;20313;-37
2021/11/16 07:42:56;;;;;;;21.05;8.18;;;2.60;59.50;;;;;;5058364;28;20106;-41
2021/11/16 07:45:25;;;;;;;19.30;7.70;;;2.70;59.70;;;;;;5058922;28;20022;-41
2021/11/16 07:47:55;;;;;;;20.70;9.38;;;2.80;59.30;;;;;;5058609;28;20317;-40
2021/11/16 07:50:37;;;;;;;26.70;9.77;;;2.80;59.00;;;;;;5058995;28;20057;-40
2021/11/16 07:53:20;;;;;;;15.38;8.68;;;2.80;58.70;;;;;;5058443;28;20574;-41
2021/11/16 07:55:54;;;;;;;15.75;8.43;;;2.90;58.40;;;;;;5058476;28;20036;-41
2021/11/16 07:58:30;;;;;;;16.17;7.22;;;2.90;58.80;;;;;;5058348;28;20023;-36
2021/11/16 08:00:57;;;;;;;17.52;8.40;;;2.90;58.20;;;;;;5058144;28;20324;-36
2021/11/16 08:03:25;;;;;;;26.02;11.55;;;2.90;58.40;;;;;;5058421;28;20036;-36
2021/11/16 08:06:09;;;;;;;17.40;8.35;;;3.00;58.50;;;;;;5058391;28;20047;-37
2021/11/16 08:11:25;;;;;;;13.77;7.78;;;3.10;58.70;;;;;;5057997;28;20029;-40
2021/11/16 08:14:06;;;;;;;28.58;7.03;;;3.20;58.30;;;;;;5058689;28;20067;-39
2021/11/16 08:16:35;;;;;;;17.70;7.47;;;3.20;59.00;;;;;;5057701;28;20045;-38
2021/11/16 08:19:09;;;;;;;14.20;6.50;;;3.30;58.50;;;;;;5058328;28;20306;-36
2021/11/16 08:21:36;;;;;;;22.73;8.73;;;3.30;58.40;;;;;;5057640;28;20325;-37
2021/11/16 08:24:07;;;;;;;13.95;6.93;;;3.40;58.50;;;;;;5057287;28;20036;-37
2021/11/16 08:26:39;;;;;;;21.90;8.60;;;3.40;57.90;;;;;;5052522;28;20304;-37
2021/11/16 08:29:07;;;;;;;9.70;6.15;;;3.50;57.90;;;;;;5047209;28;20040;-37
2021/11/16 08:31:42;;;;;;;12.80;7.80;;;3.60;57.60;;;;;;5053669;28;20106;-37
2021/11/16 08:34:09;;;;;;;22.30;8.05;;;3.60;57.60;;;;;;5037026;28;20041;-36
2021/11/16 08:36:52;;;;;;;9.35;5.90;;;3.70;57.80;;;;;;5037360;28;20375;-39
2021/11/16 08:39:22;;;;;;;14.70;6.38;;;3.80;57.60;;;;;;5038210;28;20040;-39
2021/11/16 08:41:48;;;;;;;17.65;6.35;;;3.80;57.30;;;;;;5037144;28;20103;-37
2021/11/16 08:44:30;;;;;;;10.18;6.18;;;3.90;57.70;;;;;;5038010;28;20050;-40
2021/11/16 08:47:06;;;;;;;18.92;6.05;;;4.00;57.30;;;;;;5037129;28;20083;-37
2021/11/16 08:49:33;;;;;;;9.32;5.03;;;4.00;57.30;;;;;;5038198;28;20080;-37
2021/11/16 08:52:02;;;;;;;10.98;5.13;;;4.10;57.30;;;;;;5037167;28;20104;-36
2021/11/16 08:54:34;;;;;;;11.65;5.22;;;4.10;56.70;;;;;;5037650;28;20083;-40
2021/11/16 08:57:00;;;;;;;17.17;10.85;;;4.20;56.50;;;;;;5036924;28;20120;-39
2021/11/16 08:59:26;;;;;;;12.98;6.93;;;4.20;56.50;;;;;;5037773;28;20104;-36
2021/11/16 09:01:53;;;;;;;9.40;5.07;;;4.20;56.70;;;;;;5036825;28;20021;-39
2021/11/16 09:04:31;;;;;;;12.25;6.03;;;4.20;56.50;;;;;;5037750;28;20025;-37
2021/11/16 09:06:58;;;;;;;10.05;5.80;;;4.20;56.70;;;;;;5036777;28;20030;-41
2021/11/16 09:09:25;;;;;;;16.92;6.03;;;4.30;56.70;;;;;;5037504;28;20037;-37
2021/11/16 09:12:04;;;;;;;9.27;5.35;;;4.30;56.40;;;;;;5036870;28;20060;-37
2021/11/16 09:14:31;;;;;;;15.90;4.90;;;4.30;56.30;;;;;;5037507;28;20030;-39
2021/11/16 09:17:09;;;;;;;6.13;4.68;;;4.40;56.40;;;;;;5036462;28;20436;-37
2021/11/16 09:19:34;;;;;;;13.45;6.40;;;4.50;56.10;;;;;;5037560;28;20029;-40
2021/11/16 09:22:02;;;;;;;14.65;7.05;;;4.50;56.30;;;;;;5036374;28;20033;-39
2021/11/16 09:24:38;;;;;;;16.63;7.70;;;4.60;55.70;;;;;;5037405;28;20060;-36
2021/11/16 09:29:36;;;;;;;8.25;5.45;;;4.70;55.50;;;;;;5037342;28;20044;-40
2021/11/16 09:32:11;;;;;;;8.02;5.05;;;4.70;55.50;;;;;;5036724;28;20341;-40
2021/11/16 09:34:40;;;;;;;11.48;6.18;;;4.70;55.40;;;;;;5037298;28;20086;-37
2021/11/16 09:37:38;;;;;;;9.02;5.15;;;4.80;55.60;;;;;;5035925;28;20026;-40
2021/11/16 09:40:05;;;;;;;17.17;6.50;;;4.90;55.00;;;;;;5035803;28;20315;-40
2021/11/16 09:42:32;;;;;;;9.38;5.68;;;4.90;55.20;;;;;;5036267;28;20042;-39
2021/11/16 09:45:15;;;;;;;12.55;4.93;;;5.00;55.20;;;;;;5035871;28;20064;-40
2021/11/16 09:47:42;;;;;;;8.73;5.03;;;5.00;54.30;;;;;;5036664;28;20302;-36
2021/11/16 09:50:16;;;;;;;12.00;6.60;;;5.10;54.00;;;;;;5036231;28;20091;-38
2021/11/16 09:52:47;;;;;;;8.52;4.53;;;5.20;54.30;;;;;;5036530;28;20029;-37
2021/11/16 09:55:18;;;;;;;8.50;4.95;;;5.20;53.60;;;;;;5036422;28;20144;-40
2021/11/16 09:58:07;;;;;;;10.50;5.38;;;5.30;53.40;;;;;;5036049;28;20069;-40
2021/11/16 10:00:35;;;;;;;14.90;7.00;;;5.30;53.00;;;;;;5036182;28;20033;-41
2021/11/16 10:03:00;;;;;;;7.90;5.20;;;5.30;53.20;;;;;;5036287;28;20417;-40
2021/11/16 10:05:28;;;;;;;12.05;6.70;;;5.40;52.60;;;;;;5036282;28;20171;-40
2021/11/16 10:08:00;;;;;;;8.30;5.40;;;5.40;52.90;;;;;;5035900;28;20018;-40
2021/11/16 10:10:29;;;;;;;11.55;5.22;;;5.40;52.50;;;;;;5035859;28;20056;-41
2021/11/16 10:12:59;;;;;;;10.88;6.90;;;5.50;52.40;;;;;;5035930;28;20017;-37
2021/11/16 10:15:28;;;;;;;10.38;5.68;;;5.50;52.70;;;;;;5035561;28;20030;-37
2021/11/16 10:17:54;;;;;;;17.33;6.63;;;5.60;52.60;;;;;;5036200;28;20089;-41
2021/11/16 10:20:26;;;;;;;8.82;4.50;;;5.60;52.50;;;;;;5035988;28;20026;-41
2021/11/16 10:22:54;;;;;;;9.32;4.60;;;5.60;51.90;;;;;;5035855;28;20139;-40
2021/11/16 10:25:23;;;;;;;8.98;4.95;;;5.70;51.90;;;;;;5036102;28;20436;-41
2021/11/16 10:27:53;;;;;;;15.25;6.57;;;5.70;51.20;;;;;;5036035;28;20314;-38
2021/11/16 10:30:30;;;;;;;12.57;5.90;;;5.70;51.80;;;;;;5035956;28;20322;-40
2021/11/16 10:33:16;;;;;;;11.02;5.95;;;5.70;52.00;;;;;;5035712;28;20029;-37
2021/11/16 10:35:41;;;;;;;12.13;7.28;;;5.70;51.90;;;;;;5035749;28;20033;-38
2021/11/16 10:38:14;;;;;;;21.55;12.40;;;5.80;52.20;;;;;;5035903;28;20071;-37
2021/11/16 10:40:40;;;;;;;10.15;6.20;;;5.80;52.00;;;;;;5035844;28;20112;-41
2021/11/16 10:43:07;;;;;;;10.80;5.93;;;5.90;52.80;;;;;;5035611;28;20426;-39
2021/11/16 10:45:38;;;;;;;33.67;8.35;;;6.00;51.80;;;;;;5035703;28;20030;-36
2021/11/16 10:48:09;;;;;;;14.95;6.70;;;6.10;51.90;;;;;;5034976;28;20052;-37
2021/11/16 10:50:36;;;;;;;8.77;5.68;;;6.10;52.00;;;;;;5035933;28;20415;-40
2021/11/16 10:53:23;;;;;;;9.30;5.57;;;6.10;52.80;;;;;;5035384;28;20063;-41
2021/11/16 10:55:49;;;;;;;8.73;5.43;;;6.20;51.70;;;;;;5035522;28;20287;-36
2021/11/16 10:58:17;;;;;;;17.23;6.88;;;6.20;51.70;;;;;;5048086;28;20029;-36
2021/11/16 11:00:47;;;;;;;10.38;6.15;;;6.20;51.60;;;;;;5055301;28;20028;-39
2021/11/16 11:03:18;;;;;;;14.25;7.93;;;6.30;51.50;;;;;;5054860;28;20035;-39
2021/11/16 11:05:45;;;;;;;27.40;7.03;;;6.30;51.80;;;;;;5055506;28;20329;-37
2021/11/16 11:08:26;;;;;;;11.85;6.47;;;6.30;51.60;;;;;;5054602;28;20044;-37
2021/11/16 11:10:52;;;;;;;;;;;6.40;51.60;;;;;;5055632;28;20368;-41
2021/11/16 11:13:22;;;;;;;11.23;6.45;;;6.40;51.90;;;;;;5055158;28;19908;-38
2021/11/16 11:15:49;;;;;;;12.25;7.28;;;6.40;51.60;;;;;;5055001;28;20029;-38
2021/11/16 11:18:31;;;;;;;11.50;6.70;;;6.50;51.00;;;;;;5055087;28;20035;-40
2021/11/16 11:20:59;;;;;;;10.90;6.60;;;6.60;50.60;;;;;;5055353;28;20102;-37
2021/11/16 11:23:46;;;;;;;10.50;6.10;;;6.60;51.00;;;;;;5055291;28;20480;-37
2021/11/16 11:32:26;;;;;;;21.63;7.50;;;6.80;51.00;;;;;;5054978;28;20029;-41
2021/11/16 11:35:01;;;;;;;16.73;7.05;;;6.90;50.80;;;;;;5055512;28;20036;-37
2021/11/16 11:37:32;;;;;;;11.98;7.25;;;6.90;50.70;;;;;;5053668;28;20155;-37
2021/11/16 11:40:05;;;;;;;10.38;6.72;;;7.00;50.50;;;;;;5055287;28;20436;-40
2021/11/16 11:42:50;;;;;;;17.30;10.95;;;7.00;50.40;;;;;;5054524;28;20107;-36
2021/11/16 11:45:24;;;;;;;10.77;5.88;;;7.00;50.40;;;;;;5054968;28;20029;-38
2021/11/16 11:47:56;;;;;;;9.77;6.53;;;7.10;50.10;;;;;;5054870;28;20476;-40
2021/11/16 11:50:30;;;;;;;15.30;8.68;;;7.00;49.20;;;;;;5055024;28;20099;-40
2021/11/16 11:53:17;;;;;;;14.48;6.53;;;7.00;49.50;;;;;;5054766;28;20064;-37
2021/11/16 11:55:47;;;;;;;13.05;7.85;;;6.90;49.60;;;;;;5054733;28;20032;-40
2021/11/16 11:58:15;;;;;;;13.15;7.75;;;6.80;49.90;;;;;;5055194;28;20080;-38
2021/11/16 12:00:43;;;;;;;16.70;7.03;;;6.80;50.00;;;;;;5058722;28;20029;-37
2021/11/16 12:03:10;;;;;;;12.55;7.57;;;6.70;50.10;;;;;;5058479;28;20104;-36
2021/11/16 12:05:39;;;;;;;9.15;5.80;;;6.70;50.10;;;;;;5058847;28;20112;-37
2021/11/16 12:08:05;;;;;;;13.75;6.88;;;6.70;49.60;;;;;;5058116;28;20032;-36
2021/11/16 12:10:35;;;;;;;9.80;6.28;;;6.70;49.30;;;;;;5058327;28;20432;-36
2021/11/16 12:13:02;;;;;;;11.50;6.20;;;6.70;49.60;;;;;;5058046;28;20025;-37
2021/11/16 12:15:54;;;;;;;18.33;7.07;;;6.70;49.50;;;;;;5057953;28;20440;-38
2021/11/16 12:18:38;;;;;;;14.75;8.13;;;6.70;49.40;;;;;;5058240;28;20467;-37
2021/11/16 12:21:04;;;;;;;12.95;5.95;;;6.70;49.50;;;;;;5058177;28;20070;-36
2021/11/16 12:23:54;;;;;;;9.32;5.95;;;6.70;49.50;;;;;;5058147;28;20105;-40
2021/11/16 12:26:20;;;;;;;11.02;6.35;;;6.70;49.40;;;;;;5058126;28;20029;-39
2021/11/16 12:28:45;;;;;;;10.27;6.28;;;6.60;49.50;;;;;;5058216;28;20029;-37
2021/11/16 12:31:25;;;;;;;9.63;5.90;;;6.60;49.50;;;;;;5057684;28;20037;-38
2021/11/16 12:33:51;;;;;;;13.05;6.32;;;6.60;49.70;;;;;;5057883;28;20029;-37
2021/11/16 12:36:40;;;;;;;10.63;5.60;;;6.50;49.70;;;;;;5057910;28;20369;-36
2021/11/16 12:39:21;;;;;;;12.48;6.47;;;6.50;49.80;;;;;;5058204;28;20033;-36
2021/11/16 12:41:51;;;;;;;16.55;6.95;;;6.50;49.80;;;;;;5057472;28;20025;-36
2021/11/16 12:44:38;;;;;;;11.82;5.97;;;6.40;49.70;;;;;;5058237;28;20124;-40
2021/11/16 12:47:06;;;;;;;11.85;6.65;;;6.40;49.70;;;;;;5057422;28;20065;-38
2021/11/16 12:49:38;;;;;;;12.00;6.82;;;6.40;50.00;;;;;;5058234;28;20090;-36
2021/11/16 12:52:07;;;;;;;16.27;7.18;;;6.40;50.10;;;;;;5057760;28;20037;-37
2021/11/16 12:54:35;;;;;;;11.40;5.63;;;6.30;50.10;;;;;;5057510;28;20433;-39
2021/11/16 12:57:00;;;;;;;10.45;6.72;;;6.30;50.20;;;;;;5057471;28;20100;-36
2021/11/16 12:59:32;;;;;;;10.88;5.82;;;6.30;50.20;;;;;;5058010;28;20111;-36
2021/11/16 13:02:03;;;;;;;12.45;6.38;;;6.30;50.30;;;;;;5056534;28;20021;-39
2021/11/16 13:04:49;;;;;;;15.95;7.03;;;6.20;50.30;;;;;;5058019;28;20029;-37
2021/11/16 13:07:26;;;;;;;11.48;6.25;;;6.20;50.40;;;;;;5057171;28;20364;-37
2021/11/16 13:10:06;;;;;;;19.65;7.47;;;6.20;50.40;;;;;;5057016;28;20056;-40
2021/11/16 13:12:54;;;;;;;17.83;6.97;;;6.10;50.60;;;;;;5057293;28;20448;-37
2021/11/16 13:15:24;;;;;;;15.80;7.43;;;6.10;50.80;;;;;;5057569;28;20329;-40
2021/11/16 13:17:53;;;;;;;19.42;7.30;;;6.10;50.80;;;;;;5057382;28;20036;-41
2021/11/16 13:20:31;;;;;;;25.45;9.32;;;6.20;50.90;;;;;;5057501;28;20481;-36
2021/11/16 13:23:14;;;;;;;38.33;10.38;;;6.20;50.90;;;;;;5057179;28;20025;-37